createdAt,value
2019-04-21T00:01:22.357Z,41.80
2019-04-21T00:06:48.079Z,42.10
2019-04-21T00:11:55.349Z,42.13
2019-04-21T00:16:44.113Z,44.45
2019-04-21T00:21:47.816Z,47.70
2019-04-21T00:27:05.208Z,47.05
2019-04-21T00:32:10.119Z,46.35
2019-04-21T00:37:11.054Z,44.63
2019-04-21T00:42:24.765Z,42.05
2019-04-21T00:47:31.721Z,37.90
2019-04-21T00:52:58.113Z,41.28
2019-04-21T00:57:58.584Z,39.08
2019-04-21T01:03:04.922Z,41.70
2019-04-21T01:08:08.467Z,35.35
2019-04-21T01:13:15.935Z,37.53
2019-04-21T01:18:16.754Z,36.50
2019-04-21T01:23:00.257Z,35.73
2019-04-21T01:28:21.388Z,35.33
2019-04-21T01:33:34.879Z,35.05
2019-04-21T01:38:42.828Z,34.83
2019-04-21T01:43:39.496Z,35.30
2019-04-21T01:48:47.977Z,33.23
2019-04-21T01:54:09.974Z,36.08
2019-04-21T01:59:00.675Z,37.17
2019-04-21T02:04:24.546Z,33.28
2019-04-21T02:09:23.287Z,35.30
2019-04-21T02:14:31.131Z,31.42
2019-04-21T02:19:28.719Z,33.35
2019-04-21T02:29:51.227Z,31.65
2019-04-21T02:35:18.551Z,30.12
2019-04-21T02:40:22.332Z,32.35
2019-04-21T02:50:21.283Z,35.58
2019-04-21T02:55:21.979Z,36.83
2019-04-21T03:00:43.095Z,36.38
2019-04-21T03:05:50.768Z,35.48
2019-04-21T03:11:04.286Z,36.42
2019-04-21T03:16:17.010Z,30.32
2019-04-21T03:21:15.464Z,31.35
2019-04-21T03:26:23.074Z,33.10
2019-04-21T03:31:36.118Z,31.30
2019-04-21T03:36:49.855Z,32.15
2019-04-21T03:46:43.810Z,28.52
2019-04-21T03:56:59.325Z,29.45
2019-04-21T04:07:33.579Z,24.02
2019-04-21T04:12:26.708Z,21.00
2019-04-21T04:17:36.056Z,23.87
2019-04-21T04:22:51.751Z,19.25
2019-04-21T04:28:02.174Z,19.73
2019-04-21T04:32:46.270Z,21.10
2019-04-21T04:37:59.179Z,20.08
2019-04-21T04:53:22.308Z,21.48
2019-04-21T04:58:29.854Z,18.32
2019-04-21T05:03:34.731Z,17.92
2019-04-21T05:08:58.903Z,20.32
2019-04-21T05:13:51.794Z,17.42
2019-04-21T05:18:56.317Z,19.65
2019-04-21T05:23:45.615Z,17.45
2019-04-21T05:28:41.975Z,18.73
2019-04-21T05:34:00.118Z,21.95
2019-04-21T05:39:20.345Z,19.27
2019-04-21T05:44:36.566Z,19.62
2019-04-21T05:49:33.768Z,18.62
2019-04-21T05:54:53.063Z,20.82
2019-04-21T05:59:49.095Z,21.15
2019-04-21T06:05:06.794Z,20.48
2019-04-21T06:09:59.967Z,22.73
2019-04-21T06:15:08.346Z,28.52
2019-04-21T06:20:19.126Z,24.15
2019-04-21T06:30:26.556Z,24.52
2019-04-21T06:36:10.179Z,26.45
2019-04-21T06:41:00.542Z,27.35
2019-04-21T06:46:02.211Z,26.90
2019-04-21T06:51:09.164Z,22.13
2019-04-21T06:56:15.151Z,21.97
2019-04-21T07:01:21.645Z,24.77
2019-04-21T07:06:26.449Z,22.17
2019-04-21T07:11:19.866Z,22.93
2019-04-21T07:16:32.749Z,23.98
2019-04-21T07:21:34.056Z,21.05
2019-04-21T07:26:42.433Z,21.37
2019-04-21T07:31:55.834Z,21.12
2019-04-21T07:36:56.040Z,22.52
2019-04-21T07:41:57.529Z,21.82
2019-04-21T07:47:01.089Z,17.15
2019-04-21T07:52:22.131Z,17.98
2019-04-21T07:57:18.733Z,17.90
2019-04-21T08:02:29.430Z,21.07
2019-04-21T08:07:49.341Z,20.10
2019-04-21T08:12:36.243Z,15.40
2019-04-21T08:17:46.939Z,16.42
2019-04-21T08:27:58.630Z,13.93
2019-04-21T08:33:24.882Z,14.83
2019-04-21T08:38:13.825Z,17.37
2019-04-21T08:43:20.579Z,19.10
2019-04-21T08:48:22.850Z,14.20
2019-04-21T08:58:56.146Z,19.45
2019-04-21T09:09:03.641Z,16.62
2019-04-21T09:14:08.978Z,16.52
2019-04-21T09:19:07.671Z,17.32
2019-04-21T09:24:22.263Z,12.65
2019-04-21T09:29:17.227Z,15.13
2019-04-21T09:34:21.073Z,13.88
2019-04-21T09:39:20.731Z,17.37
2019-04-21T09:44:29.058Z,16.97
2019-04-21T09:49:32.781Z,14.45
2019-04-21T09:54:45.331Z,13.90
2019-04-21T09:59:42.126Z,13.43
2019-04-21T10:04:46.111Z,14.45
2019-04-21T10:09:50.126Z,15.40
2019-04-21T10:14:55.198Z,12.65
2019-04-21T10:20:00.620Z,13.25
2019-04-21T10:25:10.495Z,15.72
2019-04-21T10:30:16.207Z,14.13
2019-04-21T10:35:21.772Z,12.90
2019-04-21T10:40:25.866Z,13.53
2019-04-21T10:45:30.816Z,16.82
2019-04-21T10:50:34.882Z,11.05
2019-04-21T10:55:54.342Z,10.80
2019-04-21T11:00:46.229Z,11.18
2019-04-21T11:05:52.646Z,10.18
2019-04-21T11:10:56.615Z,10.23
2019-04-21T11:16:01.291Z,14.60
2019-04-21T11:21:06.913Z,11.85
2019-04-21T11:26:12.023Z,10.93
2019-04-21T11:31:16.006Z,9.95
2019-04-21T11:36:21.473Z,9.95
2019-04-21T11:41:25.724Z,10.35
2019-04-21T11:46:30.734Z,10.05
2019-04-21T11:51:35.219Z,6.92
2019-04-21T11:56:39.281Z,9.00
2019-04-21T12:01:43.541Z,8.60
2019-04-21T12:06:49.209Z,13.22
2019-04-21T12:11:53.749Z,7.30
2019-04-21T12:16:59.214Z,3.95
2019-04-21T12:22:11.352Z,6.05
2019-04-21T12:27:09.825Z,5.03
2019-04-21T12:32:15.993Z,5.28
2019-04-21T12:37:20.082Z,4.22
2019-04-21T12:42:24.864Z,2.98
2019-04-21T12:47:30.011Z,2.83
2019-04-21T12:52:34.078Z,3.50
2019-04-21T12:57:39.159Z,2.90
2019-04-21T13:02:43.545Z,2.87
2019-04-21T13:07:49.089Z,3.40
2019-04-21T13:12:54.152Z,4.78
2019-04-21T13:17:58.497Z,3.15
2019-04-21T13:23:02.445Z,3.67
2019-04-21T13:28:07.656Z,5.70
2019-04-21T13:33:11.575Z,5.00
2019-04-21T13:38:24.326Z,5.53
2019-04-21T13:43:21.260Z,4.80
2019-04-21T13:48:26.458Z,4.60
2019-04-21T13:53:32.597Z,4.50
2019-04-21T13:58:35.985Z,4.65
2019-04-21T14:03:39.808Z,4.72
2019-04-21T14:08:45.267Z,3.80
2019-04-21T14:13:50.408Z,4.35
2019-04-21T14:18:55.124Z,5.05
2019-04-21T14:23:59.514Z,4.42
2019-04-21T14:29:03.632Z,3.22
2019-04-21T14:34:08.017Z,3.47
2019-04-21T14:39:14.504Z,5.62
2019-04-21T14:44:18.691Z,5.55
2019-04-21T14:49:41.594Z,3.35
2019-04-21T14:54:54.321Z,3.27
2019-04-21T14:59:58.536Z,3.30
2019-04-21T15:05:03.908Z,2.98
2019-04-21T15:10:15.105Z,3.90
2019-04-21T15:15:15.873Z,4.25
2019-04-21T15:20:21.560Z,4.22
2019-04-21T15:25:26.018Z,3.27
2019-04-21T15:30:30.033Z,2.75
2019-04-21T15:35:35.192Z,3.70
2019-04-21T15:40:46.799Z,3.30
2019-04-21T15:45:44.814Z,3.98
2019-04-21T15:50:48.654Z,3.52
2019-04-21T15:55:57.053Z,7.50
2019-04-21T16:01:04.773Z,4.92
2019-04-21T16:06:09.700Z,4.20
2019-04-21T16:11:13.721Z,3.35
2019-04-21T16:16:17.413Z,3.47
2019-04-21T16:21:22.051Z,4.37
2019-04-21T16:26:26.791Z,3.87
2019-04-21T16:31:32.084Z,7.17
2019-04-21T16:36:36.063Z,3.52
2019-04-21T16:41:40.433Z,3.58
2019-04-21T16:46:45.445Z,3.12
2019-04-21T16:51:51.907Z,5.15
2019-04-21T16:57:07.982Z,5.35
2019-04-21T17:02:12.380Z,5.53
2019-04-21T17:07:16.209Z,4.20
2019-04-21T17:12:20.677Z,3.55
2019-04-21T17:17:49.760Z,6.60
2019-04-21T17:22:31.577Z,5.37
2019-04-21T17:27:36.720Z,4.20
2019-04-21T17:32:47.910Z,5.20
2019-04-21T17:37:48.152Z,7.03
2019-04-21T17:43:01.346Z,5.12
2019-04-21T17:48:04.222Z,4.15
2019-04-21T17:53:11.215Z,5.50
2019-04-21T17:58:29.226Z,6.90
2019-04-21T18:03:46.255Z,7.90
2019-04-21T18:08:46.508Z,8.75
2019-04-21T18:13:30.671Z,7.95
2019-04-21T18:18:38.951Z,10.00
2019-04-21T18:28:52.043Z,10.35
2019-04-21T18:34:06.118Z,14.70
2019-04-21T18:39:27.358Z,17.10
2019-04-21T18:50:01.845Z,13.90
2019-04-21T18:55:17.826Z,12.20
2019-04-21T19:00:23.131Z,15.88
2019-04-21T19:05:22.634Z,14.28
2019-04-21T19:11:25.094Z,16.93
2019-04-21T19:16:33.683Z,21.35
2019-04-21T19:21:20.599Z,23.25
2019-04-21T19:26:37.734Z,19.20
2019-04-21T19:31:38.479Z,19.17
2019-04-21T19:36:25.622Z,28.40
2019-04-21T19:41:43.233Z,38.33
2019-04-21T19:46:56.019Z,42.25
2019-04-21T19:51:52.245Z,43.80
2019-04-21T19:56:47.098Z,42.27
2019-04-21T20:01:51.412Z,44.08
2019-04-21T20:07:02.883Z,45.90
2019-04-21T20:12:18.497Z,45.38
2019-04-21T20:17:17.638Z,49.93
2019-04-21T20:22:11.772Z,49.80
2019-04-21T20:27:24.024Z,49.55
2019-04-21T20:32:38.339Z,51.90
2019-04-21T20:37:43.801Z,52.40
2019-04-21T20:42:47.165Z,50.55
2019-04-21T20:47:44.709Z,48.55
2019-04-21T20:53:06.117Z,37.88
2019-04-21T20:58:03.427Z,40.58
2019-04-21T21:03:21.303Z,46.20
2019-04-21T21:08:22.925Z,53.40
2019-04-21T21:18:52.292Z,47.78
2019-04-21T21:23:38.786Z,49.10
2019-04-21T21:28:37.952Z,49.13
2019-04-21T21:33:58.387Z,57.48
2019-04-21T21:38:54.542Z,57.93
2019-04-21T21:43:42.158Z,63.35
2019-04-21T21:49:01.322Z,62.78
2019-04-21T21:53:52.672Z,55.45
2019-04-21T21:58:57.090Z,61.92
2019-04-21T22:04:09.254Z,60.78
2019-04-21T22:09:12.523Z,55.95
2019-04-21T22:14:23.045Z,52.45
2019-04-21T22:19:48.564Z,50.60
2019-04-21T22:24:43.987Z,56.58
2019-04-21T22:29:40.435Z,53.60
2019-04-21T22:34:49.826Z,50.73
2019-04-21T22:39:57.891Z,51.60
2019-04-21T22:44:50.275Z,54.03
2019-04-21T22:49:54.737Z,55.00
2019-04-21T22:55:00.820Z,52.75
2019-04-21T23:00:17.411Z,47.75
2019-04-21T23:05:28.159Z,49.00
2019-04-21T23:10:27.828Z,47.03
2019-04-21T23:15:38.397Z,48.85
2019-04-21T23:20:54.065Z,45.50
2019-04-21T23:26:02.777Z,43.38
2019-04-21T23:31:09.844Z,42.65
2019-04-21T23:36:02.660Z,39.75
2019-04-21T23:41:02.394Z,37.75
2019-04-21T23:46:11.929Z,38.48
2019-04-21T23:51:23.259Z,42.88
2019-04-21T23:56:21.661Z,37.35
